Time;durP1;ratioP1;P1;durP2;ratioP2;P2;SDS_P1;SDS_P2;PMS_P1;PMS_P2;Temp;Humidity;BMP_temperature;BMP_pressure;BME280_temperature;BME280_humidity;BME280_pressure;Samples;Min_cycle;Max_cycle;Signal;HPM_P1;HPM_P2
2024/02/21 00:02:25;;;;;;;5.47;2.58;;;14.10;67.40;15.50;101963.00;;;;5013143;28;20744;-77
2024/02/21 00:04:52;;;;;;;7.15;2.78;;;14.10;67.30;15.60;101958.00;;;;5012421;28;20312;-76
2024/02/21 00:07:19;;;;;;;5.75;2.70;;;14.10;67.30;15.50;101951.00;;;;4993197;28;20201;-77
2024/02/21 00:09:47;;;;;;;6.78;2.58;;;14.00;67.20;15.50;101938.00;;;;5019358;28;20640;-77
2024/02/21 00:12:15;;;;;;;5.70;3.03;;;14.00;67.20;15.50;101944.00;;;;5012116;28;20292;-76
2024/02/21 00:14:42;;;;;;;5.72;2.50;;;14.00;67.80;15.50;101947.00;;;;4997449;28;20718;-77
2024/02/21 00:17:09;;;;;;;7.63;2.45;;;14.00;67.20;15.50;101935.00;;;;4999118;28;20193;-77
2024/02/21 00:19:36;;;;;;;6.53;2.75;;;14.00;67.20;15.50;101930.00;;;;5012023;28;20276;-77
2024/02/21 00:22:03;;;;;;;5.13;2.35;;;14.00;67.20;15.50;101920.00;;;;5010516;28;20201;-76
2024/02/21 00:24:31;;;;;;;6.85;2.30;;;14.00;67.20;15.50;101925.00;;;;5012111;28;20279;-77
2024/02/21 00:26:59;;;;;;;6.65;2.80;;;14.00;67.20;15.50;101925.00;;;;5008676;28;20276;-76
2024/02/21 00:29:27;;;;;;;5.18;2.38;;;14.00;67.20;15.50;101924.00;;;;5007077;28;20284;-77
2024/02/21 00:31:54;;;;;;;5.60;2.90;;;14.00;67.20;15.50;101927.00;;;;5002871;28;20204;-76
2024/02/21 00:34:21;;;;;;;5.75;2.70;;;14.00;67.30;15.50;101920.00;;;;5002816;28;20244;-76
2024/02/21 00:36:49;;;;;;;6.20;2.50;;;14.00;67.30;15.50;101909.00;;;;5003034;28;20245;-76
2024/02/21 00:39:17;;;;;;;6.18;3.05;;;14.00;67.20;15.50;101901.00;;;;5006657;28;20278;-76
2024/02/21 00:41:44;;;;;;;4.07;2.40;;;13.90;67.20;15.50;101902.00;;;;5011378;28;20271;-77
2024/02/21 00:44:12;;;;;;;5.40;2.58;;;14.00;67.30;15.50;101926.00;;;;5024369;28;20294;-76
2024/02/21 00:46:39;;;;;;;7.10;2.90;;;13.90;67.20;15.50;101915.00;;;;5006361;28;20204;-76
2024/02/21 00:49:07;;;;;;;7.00;2.90;;;14.00;67.30;15.50;101907.00;;;;5011394;28;20201;-76
2024/02/21 00:51:34;;;;;;;6.63;3.08;;;13.90;67.30;15.50;101902.00;;;;5011618;28;20629;-77
2024/02/21 00:54:01;;;;;;;8.32;3.00;;;13.90;67.30;15.50;101887.00;;;;5011549;28;20225;-77
2024/02/21 00:56:29;;;;;;;6.53;3.13;;;13.90;68.10;15.50;101889.00;;;;5010723;28;20233;-76
2024/02/21 00:58:56;;;;;;;5.90;2.85;;;13.90;67.40;15.50;101881.00;;;;5011533;28;20197;-77
2024/02/21 01:01:26;;;;;;;5.93;2.67;;;14.00;67.40;15.40;101903.00;;;;5008246;28;20212;-77
2024/02/21 01:03:54;;;;;;;8.93;2.70;;;13.90;67.30;15.50;101913.00;;;;5010421;28;20316;-77
2024/02/21 01:06:21;;;;;;;7.78;2.78;;;13.90;68.10;15.40;101916.00;;;;5011500;28;20220;-76
2024/02/21 01:08:49;;;;;;;3.47;2.17;;;13.90;67.30;15.40;101918.00;;;;5010917;28;20284;-76
2024/02/21 01:11:16;;;;;;;4.50;2.30;;;13.90;67.30;15.40;101929.00;;;;5009348;28;20643;-75
2024/02/21 01:13:43;;;;;;;7.05;2.05;;;13.90;67.40;15.40;101926.00;;;;5010457;28;20619;-77
2024/02/21 01:16:10;;;;;;;5.70;2.33;;;13.90;67.40;15.40;101919.00;;;;5011472;28;20276;-76
2024/02/21 01:18:40;;;;;;;5.95;2.67;;;13.90;67.40;15.40;101926.00;;;;5011928;28;20295;-76
2024/02/21 01:21:08;;;;;;;5.57;2.42;;;13.90;67.40;15.40;101922.00;;;;5009576;28;20197;-77
2024/02/21 01:23:35;;;;;;;5.55;2.55;;;13.90;67.40;15.40;101916.00;;;;5010639;28;20201;-76
2024/02/21 01:26:03;;;;;;;4.63;2.00;;;13.90;67.50;15.40;101917.00;;;;5011485;28;20201;-76
2024/02/21 01:28:30;;;;;;;8.90;3.25;;;13.90;67.50;15.40;101899.00;;;;5010766;28;20213;-76
2024/02/21 01:30:57;;;;;;;9.93;2.40;;;13.90;67.50;15.40;101898.00;;;;5010518;28;20247;-76
2024/02/21 01:33:24;;;;;;;7.68;2.60;;;13.90;67.50;15.40;101904.00;;;;5011213;28;20283;-76
2024/02/21 01:35:53;;;;;;;4.60;2.35;;;13.90;67.50;15.40;101897.00;;;;5030058;28;20323;-76
2024/02/21 01:38:20;;;;;;;5.57;2.25;;;13.90;67.50;15.40;101885.00;;;;5031354;28;20712;-76
2024/02/21 01:40:48;;;;;;;8.73;2.40;;;13.90;67.50;15.40;101886.00;;;;5011430;28;20205;-77
2024/02/21 01:43:20;;;;;;;6.30;2.60;;;13.90;68.10;15.40;101879.00;;;;5009348;28;20287;-77
2024/02/21 01:45:51;;;;;;;5.47;2.08;;;13.80;67.40;15.40;101876.00;;;;5010456;28;20284;-76
2024/02/21 01:48:19;;;;;;;5.55;2.00;;;13.90;67.50;15.40;101863.00;;;;5010709;28;20276;-76
2024/02/21 01:50:47;;;;;;;3.97;2.20;;;13.90;67.50;15.40;101863.00;;;;5012346;28;20647;-76
2024/02/21 01:53:19;;;;;;;6.90;2.83;;;13.80;67.40;15.40;101861.00;;;;5013055;28;20292;-75
2024/02/21 01:55:48;;;;;;;4.97;2.70;;;13.80;67.50;15.40;101863.00;;;;5014447;28;20229;-76
2024/02/21 01:58:16;;;;;;;4.75;2.20;;;13.90;67.50;15.40;101870.00;;;;5011554;28;20796;-76
2024/02/21 02:00:45;;;;;;;4.35;2.00;;;13.80;67.60;15.40;101865.00;;;;5012792;28;20285;-75
2024/02/21 02:03:16;;;;;;;4.50;2.08;;;13.80;67.50;15.40;101862.00;;;;5011549;28;20229;-76
2024/02/21 02:05:45;;;;;;;6.97;2.65;;;13.80;67.50;15.40;101860.00;;;;5013424;28;20303;-76
2024/02/21 02:08:14;;;;;;;4.38;2.30;;;13.80;67.50;15.40;101860.00;;;;5014978;28;20204;-76
2024/02/21 02:10:42;;;;;;;6.32;3.20;;;13.90;67.50;15.40;101855.00;;;;5013774;28;20614;-76
2024/02/21 02:13:10;;;;;;;5.80;2.50;;;13.90;67.50;15.40;101854.00;;;;5013274;28;20283;-76
2024/02/21 02:15:41;;;;;;;3.97;2.95;;;13.80;67.40;15.40;101857.00;;;;5014049;28;20228;-76
2024/02/21 02:18:09;;;;;;;4.57;2.10;;;13.80;67.50;15.40;101844.00;;;;5012664;28;20287;-76
2024/02/21 02:20:37;;;;;;;5.60;2.50;;;13.90;67.50;15.40;101839.00;;;;5006989;28;20261;-76
2024/02/21 02:23:11;;;;;;;7.55;2.47;;;13.90;67.50;15.40;101836.00;;;;5009658;28;20193;-76
2024/02/21 02:25:40;;;;;;;4.93;2.70;;;13.80;68.10;15.40;101831.00;;;;5008171;28;20303;-74
2024/02/21 02:28:08;;;;;;;5.68;2.00;;;13.80;67.40;15.40;101824.00;;;;5002269;28;20235;-76
2024/02/21 02:30:37;;;;;;;4.70;2.47;;;13.80;67.50;15.40;101825.00;;;;5012487;28;20200;-76
2024/02/21 02:33:05;;;;;;;3.95;2.45;;;13.80;67.40;15.40;101823.00;;;;5004141;28;20274;-76
2024/02/21 02:35:35;;;;;;;9.13;2.90;;;13.80;67.40;15.40;101818.00;;;;5011738;28;20300;-76
2024/02/21 02:38:02;;;;;;;5.43;2.03;;;13.80;67.40;15.40;101821.00;;;;5006967;28;20204;-75
2024/02/21 02:40:29;;;;;;;7.13;2.50;;;13.80;67.40;15.40;101823.00;;;;5011177;28;20200;-76
2024/02/21 02:42:58;;;;;;;5.90;2.22;;;13.80;67.50;15.40;101832.00;;;;5010625;28;20206;-76
2024/02/21 02:45:26;;;;;;;4.60;2.58;;;13.80;67.40;15.40;101824.00;;;;5013539;28;20279;-77
2024/02/21 02:47:54;;;;;;;5.07;2.45;;;13.80;67.40;15.40;101815.00;;;;5013962;28;20192;-77
2024/02/21 02:50:21;;;;;;;4.82;2.35;;;13.80;68.20;15.40;101814.00;;;;5027584;28;20227;-76
2024/02/21 02:52:48;;;;;;;5.75;2.60;;;13.80;67.50;15.40;101821.00;;;;5028712;28;20676;-77
2024/02/21 02:55:16;;;;;;;7.03;2.50;;;13.80;67.40;15.40;101805.00;;;;5012227;28;20221;-76
2024/02/21 02:57:43;;;;;;;4.82;2.33;;;13.80;67.40;15.40;101812.00;;;;5012304;28;20291;-76
2024/02/21 03:00:15;;;;;;;5.95;3.00;;;13.80;67.40;15.40;101807.00;;;;5013174;28;20193;-76
2024/02/21 03:02:47;;;;;;;5.32;2.90;;;13.80;67.40;15.40;101800.00;;;;5011322;28;20566;-77
2024/02/21 03:05:16;;;;;;;5.80;2.65;;;13.80;67.40;15.40;101791.00;;;;5011829;28;20283;-76
2024/02/21 03:07:45;;;;;;;13.23;3.35;;;13.80;67.40;15.40;101790.00;;;;5010898;28;20279;-74
2024/02/21 03:10:13;;;;;;;8.43;3.05;;;13.80;67.40;15.40;101795.00;;;;5012828;28;20196;-74
2024/02/21 03:12:40;;;;;;;5.80;2.97;;;13.80;67.40;15.50;101795.00;;;;5021271;28;20250;-74
2024/02/21 03:15:08;;;;;;;5.82;2.97;;;13.90;67.40;15.40;101787.00;;;;5012701;28;20307;-74
2024/02/21 03:17:37;;;;;;;8.93;3.20;;;13.80;67.40;15.40;101783.00;;;;5029898;28;20200;-74
2024/02/21 03:20:09;;;;;;;5.38;2.67;;;13.80;67.40;15.40;101782.00;;;;5023528;28;20270;-74
2024/02/21 03:22:36;;;;;;;4.32;2.65;;;13.80;67.40;15.50;101780.00;;;;4993941;28;20206;-74
2024/02/21 03:25:03;;;;;;;5.40;2.83;;;13.80;67.40;15.40;101763.00;;;;5019886;28;20283;-74
2024/02/21 03:27:30;;;;;;;5.00;2.92;;;13.80;67.30;15.40;101770.00;;;;5013192;28;20289;-75
2024/02/21 03:29:57;;;;;;;5.70;2.40;;;13.80;67.40;15.40;101772.00;;;;5011174;28;20750;-75
2024/02/21 03:32:24;;;;;;;5.03;2.85;;;13.80;67.30;15.40;101759.00;;;;5012279;28;20192;-74
2024/02/21 03:34:53;;;;;;;5.32;2.95;;;13.80;67.40;15.40;101758.00;;;;5012389;28;20279;-74
2024/02/21 03:37:20;;;;;;;6.25;3.03;;;13.80;67.40;15.40;101755.00;;;;5013126;28;20189;-75
2024/02/21 03:39:47;;;;;;;3.90;2.45;;;13.80;67.30;15.40;101753.00;;;;5021601;28;20292;-75
2024/02/21 03:42:14;;;;;;;5.00;2.60;;;13.80;67.30;15.40;101745.00;;;;5014405;28;20213;-74
2024/02/21 03:44:41;;;;;;;5.28;3.15;;;13.80;67.30;15.40;101742.00;;;;5011232;28;20276;-74
2024/02/21 03:47:11;;;;;;;4.75;2.85;;;13.80;67.30;15.40;101739.00;;;;5010339;28;20203;-75
2024/02/21 03:49:38;;;;;;;6.00;2.88;;;13.70;67.20;15.30;101746.00;;;;5018792;28;20191;-75
2024/02/21 03:52:08;;;;;;;3.95;2.58;;;13.70;67.30;15.30;101744.00;;;;5012820;28;20296;-74
2024/02/21 03:54:35;;;;;;;7.05;2.80;;;13.70;67.30;15.30;101748.00;;;;5012258;28;20193;-75
2024/02/21 03:57:02;;;;;;;5.10;2.83;;;13.80;67.40;15.30;101739.00;;;;5010533;28;20312;-75
2024/02/21 03:59:29;;;;;;;5.50;2.40;;;13.70;67.20;15.30;101739.00;;;;5017277;28;20196;-74
2024/02/21 04:01:56;;;;;;;4.90;2.88;;;13.70;67.30;15.30;101737.00;;;;5030476;28;20292;-76
2024/02/21 04:04:23;;;;;;;6.30;3.05;;;13.70;67.30;15.30;101742.00;;;;5011974;28;20216;-75
2024/02/21 04:06:52;;;;;;;4.85;2.60;;;13.70;67.30;15.30;101737.00;;;;5013915;28;20284;-75
2024/02/21 04:09:20;;;;;;;4.78;3.05;;;13.70;67.40;15.30;101734.00;;;;5007553;28;20196;-76
2024/02/21 04:11:47;;;;;;;7.53;2.85;;;13.70;67.40;15.30;101741.00;;;;5013471;28;20201;-76
2024/02/21 04:14:14;;;;;;;5.50;2.78;;;13.70;67.40;15.30;101735.00;;;;5011949;28;20284;-76
2024/02/21 04:16:42;;;;;;;7.47;3.42;;;13.70;67.30;15.20;101729.00;;;;5014520;28;20319;-75
2024/02/21 04:19:09;;;;;;;5.15;2.83;;;13.70;67.30;15.30;101719.00;;;;5013308;28;20204;-75
2024/02/21 04:21:36;;;;;;;4.70;3.25;;;13.70;67.30;15.20;101720.00;;;;5021466;28;20197;-75
2024/02/21 04:24:05;;;;;;;5.80;2.80;;;13.70;67.30;15.20;101711.00;;;;5013104;28;20706;-76
2024/02/21 04:26:34;;;;;;;7.22;2.92;;;13.60;67.30;15.20;101716.00;;;;5010758;28;20212;-75
2024/02/21 04:29:01;;;;;;;5.45;2.88;;;13.70;67.30;15.20;101718.00;;;;5030470;28;20294;-75
2024/02/21 04:31:28;;;;;;;5.45;3.15;;;13.70;67.40;15.20;101712.00;;;;5028477;28;20200;-75
2024/02/21 04:33:55;;;;;;;7.40;3.08;;;13.70;67.40;15.30;101711.00;;;;5013572;28;20251;-75
2024/02/21 04:36:23;;;;;;;4.20;3.22;;;13.70;67.40;15.20;101713.00;;;;5010837;28;20594;-76
2024/02/21 04:38:50;;;;;;;3.83;2.85;;;13.60;67.30;15.30;101710.00;;;;5029344;28;20205;-75
2024/02/21 04:41:17;;;;;;;4.55;3.08;;;13.70;67.40;15.30;101714.00;;;;5017582;28;20287;-75
2024/02/21 04:43:47;;;;;;;6.15;2.88;;;13.70;67.50;15.30;101711.00;;;;5009675;28;20291;-75
2024/02/21 04:46:15;;;;;;;7.22;3.03;;;13.70;67.50;15.30;101700.00;;;;5011682;28;20646;-75
2024/02/21 04:48:43;;;;;;;5.32;2.70;;;13.70;67.50;15.30;101696.00;;;;5028850;28;20283;-76
2024/02/21 04:51:10;;;;;;;5.47;3.13;;;13.70;67.40;15.30;101690.00;;;;5029300;28;20669;-75
2024/02/21 04:53:37;;;;;;;4.45;3.33;;;13.70;67.40;15.30;101688.00;;;;5006639;28;20224;-75
2024/02/21 04:56:05;;;;;;;10.57;3.40;;;13.70;67.40;15.30;101690.00;;;;5004598;28;20769;-76
2024/02/21 04:58:32;;;;;;;6.78;3.10;;;13.70;67.40;15.30;101687.00;;;;5028940;28;20757;-75
2024/02/21 05:01:01;;;;;;;5.07;2.63;;;13.70;67.40;15.30;101680.00;;;;5026538;28;20564;-76
2024/02/21 05:03:28;;;;;;;5.00;2.65;;;13.70;67.40;15.30;101677.00;;;;5017826;28;20244;-76
2024/02/21 05:05:55;;;;;;;8.18;4.25;;;13.70;67.40;15.30;101677.00;;;;5011388;28;20287;-75
2024/02/21 05:08:22;;;;;;;6.65;3.33;;;13.70;67.40;15.30;101671.00;;;;5011998;28;20204;-76
2024/02/21 05:10:49;;;;;;;4.38;3.00;;;13.70;67.30;15.30;101672.00;;;;5027696;28;20295;-76
2024/02/21 05:13:16;;;;;;;6.40;3.35;;;13.70;67.30;15.30;101678.00;;;;5018828;28;20201;-75
2024/02/21 05:15:43;;;;;;;5.78;3.10;;;13.70;67.30;15.30;101673.00;;;;5020595;28;20271;-76
2024/02/21 05:18:12;;;;;;;5.53;3.38;;;13.70;67.20;15.30;101666.00;;;;5031639;28;20188;-75
2024/02/21 05:20:39;;;;;;;4.20;3.20;;;13.70;67.30;15.30;101657.00;;;;5011404;28;20203;-75
2024/02/21 05:23:06;;;;;;;5.38;3.58;;;13.70;67.30;15.30;101659.00;;;;5017637;28;20288;-76
2024/02/21 05:25:33;;;;;;;5.65;3.30;;;13.70;67.30;15.30;101657.00;;;;5020098;28;20367;-75
2024/02/21 05:28:02;;;;;;;5.20;3.25;;;13.70;67.30;15.30;101651.00;;;;5033623;28;20287;-75
2024/02/21 05:30:29;;;;;;;5.82;3.25;;;13.70;67.30;15.30;101648.00;;;;5022304;28;20207;-75
2024/02/21 05:32:56;;;;;;;4.72;3.20;;;13.70;67.30;15.30;101640.00;;;;5023520;28;20263;-76
2024/02/21 05:35:28;;;;;;;6.53;3.70;;;13.70;67.30;15.30;101639.00;;;;5015893;28;20247;-75
2024/02/21 05:37:55;;;;;;;4.97;3.08;;;13.70;67.30;15.30;101629.00;;;;5025975;28;20204;-76
2024/02/21 05:40:22;;;;;;;5.03;3.13;;;13.70;67.30;15.30;101628.00;;;;5022563;28;20284;-75
2024/02/21 05:42:51;;;;;;;6.18;3.50;;;13.70;67.40;15.30;101619.00;;;;5015294;28;20204;-75
2024/02/21 05:45:18;;;;;;;8.65;3.67;;;13.70;67.30;15.30;101615.00;;;;5014910;28;20279;-76
2024/02/21 05:47:45;;;;;;;5.18;3.50;;;13.70;67.30;15.30;101607.00;;;;5025316;28;20203;-76
2024/02/21 05:50:12;;;;;;;4.82;3.42;;;13.70;67.30;15.30;101605.00;;;;5020631;28;20651;-75
2024/02/21 05:52:41;;;;;;;7.95;3.85;;;13.70;67.40;15.30;101598.00;;;;5006283;28;20668;-75
2024/02/21 05:55:09;;;;;;;7.60;4.57;;;13.70;67.40;15.30;101601.00;;;;5015118;28;20220;-75
2024/02/21 05:57:36;;;;;;;7.10;4.47;;;13.70;67.40;15.30;101602.00;;;;5015181;28;20217;-75
2024/02/21 06:00:06;;;;;;;5.00;4.22;;;13.70;67.40;15.30;101603.00;;;;5002497;28;20288;-74
2024/02/21 06:02:34;;;;;;;6.90;4.57;;;13.70;67.40;15.30;101602.00;;;;5003861;28;20281;-76
2024/02/21 06:05:01;;;;;;;7.57;4.32;;;13.70;67.40;15.30;101592.00;;;;5007633;28;20236;-75
2024/02/21 06:07:28;;;;;;;9.40;3.85;;;13.70;67.40;15.30;101594.00;;;;5016834;28;20308;-75
2024/02/21 06:09:58;;;;;;;9.38;4.97;;;13.70;67.40;15.30;101595.00;;;;5011887;28;20208;-77
2024/02/21 06:12:27;;;;;;;8.15;4.55;;;13.70;67.30;15.30;101586.00;;;;5014096;28;20247;-76
2024/02/21 06:14:54;;;;;;;5.88;4.45;;;13.60;67.20;15.30;101582.00;;;;5008912;28;20240;-75
2024/02/21 06:17:26;;;;;;;7.30;5.07;;;13.60;67.20;15.20;101584.00;;;;5014183;28;20329;-75
2024/02/21 06:19:54;;;;;;;8.63;4.63;;;13.60;67.20;15.20;101587.00;;;;5013665;28;20624;-75
2024/02/21 06:22:21;;;;;;;9.65;5.05;;;13.60;67.20;15.20;101579.00;;;;5016825;28;20205;-75
2024/02/21 06:24:51;;;;;;;7.72;4.97;;;13.60;67.30;15.20;101584.00;;;;5020208;28;20203;-76
2024/02/21 06:27:19;;;;;;;12.15;6.13;;;13.60;67.30;15.20;101585.00;;;;5031562;28;20287;-75
2024/02/21 06:29:48;;;;;;;9.85;5.97;;;13.60;67.30;15.20;101586.00;;;;5015205;28;20654;-75
2024/02/21 06:32:16;;;;;;;8.73;6.25;;;13.60;67.30;15.20;101591.00;;;;5012430;28;20228;-75
2024/02/21 06:34:43;;;;;;;9.45;6.13;;;13.50;67.20;15.20;101590.00;;;;5010733;28;20228;-75
2024/02/21 06:37:16;;;;;;;10.25;6.25;;;13.50;67.20;15.20;101587.00;;;;5012272;28;20287;-75
2024/02/21 06:39:44;;;;;;;7.25;5.53;;;13.50;67.30;15.10;101598.00;;;;5011824;28;20670;-75
2024/02/21 06:42:11;;;;;;;9.98;6.60;;;13.50;67.20;15.10;101589.00;;;;5016437;28;20209;-75
2024/02/21 06:44:40;;;;;;;11.68;6.65;;;13.50;67.30;15.10;101588.00;;;;5014297;28;20193;-75
2024/02/21 06:47:08;;;;;;;10.15;5.70;;;13.50;67.20;15.00;101587.00;;;;5011020;28;20212;-75
2024/02/21 06:49:36;;;;;;;9.75;7.32;;;13.50;67.20;15.10;101590.00;;;;5013244;28;20545;-75
2024/02/21 06:52:05;;;;;;;9.88;6.78;;;13.40;67.30;15.00;101590.00;;;;5011886;28;20204;-75
2024/02/21 06:54:32;;;;;;;11.32;6.20;;;13.40;67.30;15.00;101588.00;;;;5013638;28;20197;-75
2024/02/21 06:57:01;;;;;;;8.32;6.05;;;13.40;68.00;15.00;101580.00;;;;5017384;28;20697;-75
2024/02/21 06:59:30;;;;;;;12.93;6.47;;;13.40;67.40;15.00;101577.00;;;;5019503;28;20204;-76
2024/02/21 07:02:00;;;;;;;10.23;6.65;;;13.40;67.40;15.00;101576.00;;;;5012652;28;20203;-75
2024/02/21 07:04:29;;;;;;;10.05;5.65;;;13.40;67.40;15.00;101578.00;;;;4993978;28;20320;-76
2024/02/21 07:06:58;;;;;;;9.88;6.32;;;13.40;67.40;15.00;101572.00;;;;5008433;28;20193;-75
2024/02/21 07:09:28;;;;;;;9.85;6.20;;;13.40;67.40;15.00;101570.00;;;;5017344;28;20207;-75
2024/02/21 07:11:57;;;;;;;8.98;5.63;;;13.40;67.50;15.00;101576.00;;;;5023386;28;20579;-75
2024/02/21 07:14:26;;;;;;;10.57;5.65;;;13.40;67.50;15.00;101563.00;;;;5023225;28;20205;-76
2024/02/21 07:16:53;;;;;;;9.68;5.40;;;13.30;67.50;15.00;101563.00;;;;5012555;28;20312;-76
2024/02/21 07:19:23;;;;;;;8.57;5.60;;;13.40;67.50;15.00;101562.00;;;;5012163;28;20749;-76
2024/02/21 07:21:51;;;;;;;10.18;5.93;;;13.30;67.40;14.90;101562.00;;;;5012849;28;20201;-76
2024/02/21 07:24:20;;;;;;;8.93;5.53;;;13.40;67.60;15.00;101561.00;;;;5012946;28;20280;-75
2024/02/21 07:26:47;;;;;;;10.38;5.13;;;13.40;67.60;15.00;101558.00;;;;5011622;28;20201;-75
2024/02/21 07:29:14;;;;;;;10.55;5.03;;;13.40;67.60;15.00;101548.00;;;;5010685;28;20292;-75
2024/02/21 07:31:42;;;;;;;8.20;4.72;;;13.40;67.50;15.00;101545.00;;;;5012902;28;20637;-75
2024/02/21 07:34:10;;;;;;;12.95;5.32;;;13.30;67.50;15.00;101538.00;;;;5011580;28;20601;-77
2024/02/21 07:36:38;;;;;;;11.02;6.32;;;13.40;67.50;15.00;101542.00;;;;5011109;28;20229;-71
2024/02/21 07:39:06;;;;;;;7.63;5.10;;;13.40;67.50;15.00;101532.00;;;;5012565;28;20193;-71
2024/02/21 07:41:34;;;;;;;7.57;5.15;;;13.40;67.50;15.00;101536.00;;;;5008674;28;20224;-71
2024/02/21 07:44:03;;;;;;;7.30;5.68;;;13.30;67.40;15.00;101519.00;;;;5010572;28;20200;-71
2024/02/21 07:46:30;;;;;;;10.80;5.43;;;13.40;67.50;15.00;101518.00;;;;5026894;28;20654;-72
2024/02/21 07:48:57;;;;;;;9.73;5.40;;;13.40;67.50;15.00;101512.00;;;;5012825;28;20291;-71
2024/02/21 07:51:29;;;;;;;9.82;5.53;;;13.30;67.40;15.00;101502.00;;;;5012593;28;20201;-71
2024/02/21 07:53:57;;;;;;;9.02;5.32;;;13.40;67.40;15.00;101500.00;;;;5011578;28;20634;-72
2024/02/21 07:56:24;;;;;;;9.32;5.30;;;13.40;67.50;15.00;101490.00;;;;5012797;28;20323;-71
2024/02/21 07:58:51;;;;;;;9.85;5.72;;;13.40;67.50;15.00;101490.00;;;;5011387;28;20318;-72
2024/02/21 08:01:20;;;;;;;8.55;5.80;;;13.40;67.50;15.00;101491.00;;;;5007576;28;20229;-71
2024/02/21 08:03:48;;;;;;;9.32;5.55;;;13.40;67.50;15.00;101490.00;;;;5011950;28;20232;-72
2024/02/21 08:06:15;;;;;;;9.68;5.07;;;13.40;67.50;15.00;101495.00;;;;5010804;28;20284;-72
2024/02/21 08:08:42;;;;;;;10.95;5.97;;;13.40;67.50;15.00;101498.00;;;;5005572;28;20259;-71
2024/02/21 08:11:11;;;;;;;8.10;6.13;;;13.40;67.50;15.00;101490.00;;;;4995859;28;20280;-71
2024/02/21 08:13:38;;;;;;;12.40;6.32;;;13.40;67.60;15.10;101490.00;;;;5011837;28;20730;-72
2024/02/21 08:16:05;;;;;;;10.02;6.35;;;13.40;67.60;15.10;101476.00;;;;5009390;28;20722;-71
2024/02/21 08:18:36;;;;;;;10.27;6.60;;;13.40;67.70;15.10;101481.00;;;;5020204;28;20283;-72
2024/02/21 08:21:04;;;;;;;8.85;5.85;;;13.50;67.70;15.20;101473.00;;;;5009690;28;20208;-72
2024/02/21 08:23:31;;;;;;;8.20;6.13;;;13.50;67.70;15.20;101474.00;;;;5012337;28;20679;-71
2024/02/21 08:25:58;;;;;;;10.65;6.32;;;13.50;67.70;15.20;101468.00;;;;5009048;28;20200;-71
2024/02/21 08:28:29;;;;;;;12.13;6.55;;;13.50;67.60;15.20;101470.00;;;;5006595;28;20310;-71
2024/02/21 08:30:56;;;;;;;9.95;6.78;;;13.60;67.70;15.20;101469.00;;;;5008603;28;20204;-71
2024/02/21 08:33:25;;;;;;;12.73;6.82;;;13.60;67.60;15.20;101466.00;;;;5010053;28;20193;-72
2024/02/21 08:35:52;;;;;;;10.35;6.40;;;13.60;67.60;15.20;101452.00;;;;5010685;28;20650;-72
2024/02/21 08:38:19;;;;;;;11.05;6.03;;;13.60;67.60;15.30;101457.00;;;;5008902;28;20256;-72
2024/02/21 08:40:46;;;;;;;11.13;5.50;;;13.60;67.60;15.30;101457.00;;;;5011182;28;20259;-72
2024/02/21 08:43:14;;;;;;;11.48;5.93;;;13.70;67.60;15.30;101456.00;;;;5008228;28;20193;-71
2024/02/21 08:45:42;;;;;;;9.15;5.95;;;13.70;67.50;15.30;101455.00;;;;5011165;28;20272;-72
2024/02/21 08:48:09;;;;;;;7.78;5.28;;;13.70;68.10;15.40;101443.00;;;;5012176;28;20224;-72
2024/02/21 08:50:38;;;;;;;10.05;5.60;;;13.70;67.40;15.40;101441.00;;;;5009833;28;20662;-71
2024/02/21 08:53:05;;;;;;;13.43;5.90;;;13.80;67.40;15.40;101433.00;;;;5009927;28;20252;-72
2024/02/21 08:55:32;;;;;;;8.70;5.68;;;13.80;67.40;15.40;101431.00;;;;5016400;28;20193;-72
2024/02/21 08:57:59;;;;;;;10.07;5.85;;;13.80;67.30;15.40;101418.00;;;;5011923;28;20315;-72
2024/02/21 09:00:27;;;;;;;7.20;5.32;;;13.80;67.10;15.40;101426.00;;;;5008572;28;20295;-72
2024/02/21 09:02:56;;;;;;;9.57;5.53;;;13.80;67.10;15.40;101425.00;;;;5006005;28;20662;-71
2024/02/21 09:05:24;;;;;;;6.93;4.93;;;13.80;67.10;15.50;101423.00;;;;5008554;28;20232;-72
2024/02/21 09:07:51;;;;;;;9.52;5.22;;;13.80;67.20;15.50;101428.00;;;;5007275;28;20243;-72
2024/02/21 09:10:19;;;;;;;10.95;5.75;;;13.80;67.20;15.60;101419.00;;;;5011604;28;20287;-72
2024/02/21 09:12:47;;;;;;;6.25;4.47;;;13.80;67.10;15.60;101408.00;;;;5007587;28;20204;-72
2024/02/21 09:15:14;;;;;;;6.80;4.95;;;13.90;67.20;15.60;101407.00;;;;5005527;28;20201;-71
2024/02/21 09:17:41;;;;;;;8.05;5.63;;;13.90;67.10;15.60;101412.00;;;;5004260;28;20221;-72
2024/02/21 09:20:15;;;;;;;8.50;5.22;;;13.90;67.10;15.60;101416.00;;;;5008259;28;20240;-71
2024/02/21 09:22:43;;;;;;;7.55;5.35;;;14.00;67.00;15.60;101408.00;;;;5005281;28;20657;-71
2024/02/21 09:25:11;;;;;;;8.48;4.97;;;14.00;66.80;15.70;101399.00;;;;5009391;28;20691;-71
2024/02/21 09:27:39;;;;;;;9.45;5.15;;;14.00;66.80;15.70;101401.00;;;;5009098;28;20654;-71
2024/02/21 09:30:07;;;;;;;10.45;5.03;;;14.00;66.70;15.70;101400.00;;;;5008382;28;20686;-71
2024/02/21 09:32:35;;;;;;;10.18;4.88;;;14.10;66.70;15.70;101395.00;;;;5010311;28;20229;-71
2024/02/21 09:35:02;;;;;;;10.10;5.55;;;14.00;66.70;15.70;101390.00;;;;5007855;28;20284;-71
2024/02/21 09:37:31;;;;;;;7.93;4.97;;;14.00;66.80;15.70;101378.00;;;;5011471;28;20304;-71
2024/02/21 09:39:58;;;;;;;9.25;5.30;;;14.10;66.80;15.70;101361.00;;;;5010254;28;20272;-71
2024/02/21 09:42:38;;;;;;;8.80;5.05;;;14.10;66.60;15.70;101352.00;;;;5011326;28;20248;-70
2024/02/21 09:45:14;;;;;;;8.82;4.55;;;14.10;66.60;15.80;101362.00;;;;5009717;28;20201;-70
2024/02/21 09:47:54;;;;;;;6.65;4.90;;;14.10;66.60;15.70;101348.00;;;;5005048;28;20193;-72
2024/02/21 09:50:25;;;;;;;6.60;4.60;;;14.20;66.60;15.80;101342.00;;;;5008970;28;20189;-72
2024/02/21 09:52:57;;;;;;;10.13;4.38;;;14.20;66.50;15.80;101337.00;;;;5009888;28;20661;-71
2024/02/21 09:55:26;;;;;;;6.32;4.32;;;14.20;66.40;15.90;101325.00;;;;5009566;28;20197;-71
2024/02/21 09:57:55;;;;;;;9.55;4.78;;;14.20;66.40;15.90;101313.00;;;;5009523;28;20243;-71
2024/02/21 10:00:23;;;;;;;7.75;4.47;;;14.20;66.40;15.90;101300.00;;;;5009855;28;20288;-71
2024/02/21 10:02:50;;;;;;;5.45;3.58;;;14.30;66.40;15.90;101309.00;;;;5006782;28;20573;-72
2024/02/21 10:05:18;;;;;;;6.00;4.18;;;14.30;66.50;16.00;101299.00;;;;5009839;28;20229;-71
2024/02/21 10:07:45;;;;;;;6.30;3.97;;;14.30;66.40;16.00;101292.00;;;;5008533;28;20201;-71
2024/02/21 10:10:14;;;;;;;8.27;4.47;;;14.30;66.30;16.00;101286.00;;;;5007685;28;20293;-71
2024/02/21 10:12:50;;;;;;;6.85;4.78;;;14.40;66.20;16.00;101278.00;;;;5007965;28;20189;-72
2024/02/21 10:15:23;;;;;;;7.55;3.95;;;14.40;66.10;16.00;101271.00;;;;5009274;28;20203;-71
2024/02/21 10:17:51;;;;;;;6.13;3.72;;;14.40;66.20;16.10;101271.00;;;;5012521;28;20737;-72
2024/02/21 10:20:18;;;;;;;10.63;4.75;;;14.50;66.20;16.20;101269.00;;;;5011693;28;20305;-72
2024/02/21 10:22:45;;;;;;;5.40;3.25;;;14.50;66.20;16.20;101270.00;;;;5012397;28;20616;-72
2024/02/21 10:25:14;;;;;;;8.70;4.40;;;14.50;66.30;16.20;101261.00;;;;5012732;28;20288;-72
2024/02/21 10:27:42;;;;;;;3.88;3.15;;;14.60;66.20;16.30;101254.00;;;;5009855;28;20285;-71
2024/02/21 10:30:16;;;;;;;5.88;3.70;;;14.60;66.10;16.30;101241.00;;;;5008934;28;20189;-72
2024/02/21 10:32:52;;;;;;;5.80;3.53;;;14.60;65.80;16.20;101243.00;;;;5011820;28;20208;-72
2024/02/21 10:35:28;;;;;;;5.10;4.10;;;14.70;65.80;16.20;101243.00;;;;5006606;28;20201;-71
2024/02/21 10:37:56;;;;;;;4.07;2.90;;;14.70;65.80;16.30;101244.00;;;;5014297;28;20224;-72
2024/02/21 10:40:29;;;;;;;4.82;3.45;;;14.70;65.80;16.30;101230.00;;;;5016414;28;20233;-71
2024/02/21 10:42:59;;;;;;;5.38;3.70;;;14.80;65.70;16.30;101222.00;;;;5013718;28;20197;-72
2024/02/21 10:45:32;;;;;;;5.35;3.53;;;14.70;65.60;16.30;101209.00;;;;5014317;28;20212;-72
2024/02/21 10:48:16;;;;;;;4.18;3.17;;;14.80;65.70;16.30;101205.00;;;;5009875;28;20566;-72
2024/02/21 10:51:04;;;;;;;6.00;3.30;;;14.80;65.70;16.30;101189.00;;;;5006110;28;20193;-72